createdAt,value
2017-07-16T00:00:22.117Z,0
2017-07-16T00:01:21.730Z,0
2017-07-16T00:02:22.016Z,0
2017-07-16T00:03:21.685Z,0
2017-07-16T00:04:21.684Z,0
2017-07-16T00:05:21.973Z,0
2017-07-16T00:06:21.941Z,0
2017-07-16T00:07:21.930Z,0
2017-07-16T00:08:21.620Z,0
2017-07-16T00:09:21.944Z,0
2017-07-16T00:10:21.869Z,0
2017-07-16T00:11:21.568Z,0
2017-07-16T00:12:21.824Z,0
2017-07-16T00:13:21.802Z,0
2017-07-16T00:14:21.472Z,0
2017-07-16T00:15:21.759Z,0
2017-07-16T00:16:21.732Z,0
2017-07-16T00:17:21.735Z,0
2017-07-16T00:18:21.705Z,0
2017-07-16T00:19:21.366Z,0
2017-07-16T00:20:21.665Z,0
2017-07-16T00:21:21.348Z,0
2017-07-16T00:22:21.312Z,0
2017-07-16T00:23:21.590Z,0
2017-07-16T00:24:21.580Z,0
2017-07-16T00:25:21.573Z,0
2017-07-16T00:26:21.589Z,0
2017-07-16T00:27:21.520Z,0
2017-07-16T00:28:21.507Z,0
2017-07-16T00:29:21.499Z,0
2017-07-16T00:30:21.161Z,0
2017-07-16T00:31:20.837Z,0
2017-07-16T00:32:21.431Z,0
2017-07-16T00:33:21.092Z,0
2017-07-16T00:34:21.103Z,0
2017-07-16T00:35:21.363Z,0
2017-07-16T00:36:21.395Z,0
2017-07-16T00:37:21.330Z,0
2017-07-16T00:38:20.988Z,0
2017-07-16T00:39:21.287Z,0
2017-07-16T00:40:20.987Z,0
2017-07-16T00:41:21.235Z,0
2017-07-16T00:42:20.930Z,0
2017-07-16T00:43:20.579Z,0
2017-07-16T00:44:21.176Z,0
2017-07-16T00:45:21.159Z,0
2017-07-16T00:46:21.150Z,0
2017-07-16T00:47:21.127Z,0
2017-07-16T00:48:20.793Z,0
2017-07-16T00:49:21.084Z,0
2017-07-16T00:50:21.055Z,0
2017-07-16T00:51:21.040Z,0
2017-07-16T00:52:20.767Z,0
2017-07-16T00:53:21.012Z,0
2017-07-16T00:54:20.981Z,0
2017-07-16T00:55:21.270Z,0
2017-07-16T00:56:20.634Z,0
2017-07-16T00:57:20.964Z,0
2017-07-16T00:58:20.956Z,0
2017-07-16T00:59:20.882Z,0
2017-07-16T01:00:20.868Z,0
2017-07-16T01:01:20.856Z,0
2017-07-16T01:02:20.827Z,0
2017-07-16T01:03:20.799Z,0
2017-07-16T01:04:20.786Z,0
2017-07-16T01:05:20.760Z,0
2017-07-16T01:06:20.749Z,0
2017-07-16T01:07:20.715Z,0
2017-07-16T01:08:20.687Z,0
2017-07-16T01:09:20.369Z,0
2017-07-16T01:10:20.665Z,0
2017-07-16T01:11:20.390Z,0
2017-07-16T01:12:20.310Z,0
2017-07-16T01:13:20.597Z,0
2017-07-16T01:14:20.292Z,0
2017-07-16T01:15:20.597Z,0
2017-07-16T01:16:20.238Z,0
2017-07-16T01:17:20.510Z,0
2017-07-16T01:18:20.493Z,0
2017-07-16T01:19:20.480Z,0
2017-07-16T01:20:20.164Z,0
2017-07-16T01:21:20.435Z,0
2017-07-16T01:22:20.419Z,0
2017-07-16T01:23:20.391Z,0
2017-07-16T01:24:20.372Z,0
2017-07-16T01:25:20.363Z,0
2017-07-16T01:26:20.335Z,0
2017-07-16T01:27:20.330Z,0
2017-07-16T01:28:19.988Z,0
2017-07-16T01:29:20.278Z,0
2017-07-16T01:30:19.947Z,0
2017-07-16T01:31:19.937Z,0
2017-07-16T01:32:19.912Z,0
2017-07-16T01:33:20.195Z,0
2017-07-16T01:34:20.174Z,0
2017-07-16T01:35:20.155Z,0
2017-07-16T01:36:20.140Z,0
2017-07-16T01:37:20.114Z,0
2017-07-16T01:38:20.105Z,0
2017-07-16T01:39:20.072Z,0
2017-07-16T01:40:20.067Z,0
2017-07-16T01:41:20.041Z,0
2017-07-16T01:42:19.716Z,0
2017-07-16T01:43:19.991Z,0
2017-07-16T01:44:19.674Z,0
2017-07-16T01:45:19.683Z,0
2017-07-16T01:46:19.319Z,0
2017-07-16T01:47:19.925Z,0
2017-07-16T01:48:19.902Z,0
2017-07-16T01:49:19.924Z,0
2017-07-16T01:50:19.551Z,0
2017-07-16T01:51:19.829Z,0
2017-07-16T01:52:19.826Z,0
2017-07-16T01:53:19.802Z,0
2017-07-16T01:54:19.779Z,0
2017-07-16T01:55:19.755Z,0
2017-07-16T01:56:19.113Z,0
2017-07-16T01:57:19.710Z,0
2017-07-16T01:58:19.749Z,0
2017-07-16T01:59:19.668Z,0
2017-07-16T02:00:19.656Z,0
2017-07-16T02:01:19.372Z,0
2017-07-16T02:02:19.614Z,0
2017-07-16T02:03:19.600Z,0
2017-07-16T02:04:19.260Z,0
2017-07-16T02:05:19.569Z,0
2017-07-16T02:06:19.544Z,0
2017-07-16T02:07:19.513Z,0
2017-07-16T02:08:19.505Z,0
2017-07-16T02:09:19.529Z,0
2017-07-16T02:10:19.152Z,0
2017-07-16T02:11:19.488Z,0
2017-07-16T02:12:19.109Z,0
2017-07-16T02:13:19.405Z,0
2017-07-16T02:14:19.065Z,0
2017-07-16T02:15:19.048Z,0
2017-07-16T02:16:19.020Z,0
2017-07-16T02:17:19.312Z,0
2017-07-16T02:18:19.288Z,0
2017-07-16T02:19:19.270Z,0
2017-07-16T02:20:19.251Z,0
2017-07-16T02:21:18.980Z,0
2017-07-16T02:22:18.905Z,0
2017-07-16T02:23:18.877Z,0
2017-07-16T02:24:19.188Z,0
2017-07-16T02:25:18.837Z,0
2017-07-16T02:26:18.825Z,0
2017-07-16T02:27:19.113Z,0
2017-07-16T02:28:19.201Z,0
2017-07-16T02:29:19.078Z,0
2017-07-16T02:30:19.043Z,0
2017-07-16T02:31:19.032Z,0
2017-07-16T02:32:18.707Z,0
2017-07-16T02:33:18.988Z,0
2017-07-16T02:34:18.972Z,0
2017-07-16T02:35:18.698Z,0
2017-07-16T02:36:18.927Z,0
2017-07-16T02:37:18.905Z,0
2017-07-16T02:38:18.880Z,0
2017-07-16T02:39:18.570Z,0
2017-07-16T02:40:18.849Z,0
2017-07-16T02:41:18.524Z,0
2017-07-16T02:42:18.876Z,0
2017-07-16T02:43:18.779Z,0
2017-07-16T02:44:18.762Z,0
2017-07-16T02:45:18.432Z,0
2017-07-16T02:46:18.119Z,0
2017-07-16T02:47:18.718Z,0
2017-07-16T02:48:18.691Z,0
2017-07-16T02:49:18.667Z,0
2017-07-16T02:50:18.642Z,0
2017-07-16T02:51:18.625Z,0
2017-07-16T02:52:18.609Z,0
2017-07-16T02:53:18.583Z,0
2017-07-16T02:54:18.583Z,0
2017-07-16T02:55:18.244Z,0
2017-07-16T02:56:18.526Z,0
2017-07-16T02:57:18.201Z,0
2017-07-16T02:58:18.182Z,0
2017-07-16T02:59:18.172Z,0
2017-07-16T03:00:18.446Z,0
2017-07-16T03:01:18.441Z,0
2017-07-16T03:02:18.405Z,0
2017-07-16T03:03:18.076Z,0
2017-07-16T03:04:18.063Z,0
2017-07-16T03:05:18.342Z,0
2017-07-16T03:06:18.321Z,0
2017-07-16T03:07:18.013Z,0
2017-07-16T03:08:17.972Z,0
2017-07-16T03:09:18.009Z,0
2017-07-16T03:10:18.250Z,0
2017-07-16T03:11:17.946Z,0
2017-07-16T03:12:18.214Z,0
2017-07-16T03:13:18.186Z,0
2017-07-16T03:14:18.230Z,0
2017-07-16T03:15:18.151Z,0
2017-07-16T03:16:18.125Z,0
2017-07-16T03:17:18.107Z,0
2017-07-16T03:18:18.082Z,0
2017-07-16T03:19:17.754Z,0
2017-07-16T03:20:18.049Z,0
2017-07-16T03:21:17.727Z,0
2017-07-16T03:22:18.010Z,0
2017-07-16T03:23:17.979Z,0
2017-07-16T03:24:17.652Z,0
2017-07-16T03:25:17.643Z,0
2017-07-16T03:26:17.934Z,0
2017-07-16T03:27:17.904Z,0
2017-07-16T03:28:17.649Z,0
2017-07-16T03:29:17.862Z,0
2017-07-16T03:30:17.854Z,0
2017-07-16T03:31:17.214Z,0
2017-07-16T03:32:17.800Z,0
2017-07-16T03:33:17.783Z,5
2017-07-16T03:34:17.763Z,5
2017-07-16T03:35:17.438Z,5
2017-07-16T03:36:17.716Z,5
2017-07-16T03:37:17.393Z,5
2017-07-16T03:38:17.687Z,5
2017-07-16T03:39:17.667Z,5
2017-07-16T03:40:17.331Z,5
2017-07-16T03:41:17.676Z,5
2017-07-16T03:42:17.612Z,5
2017-07-16T03:43:17.269Z,5
2017-07-16T03:44:17.558Z,5
2017-07-16T03:45:17.548Z,10
2017-07-16T03:46:17.541Z,10
2017-07-16T03:47:17.502Z,10
2017-07-16T03:48:17.485Z,10
2017-07-16T03:49:17.152Z,10
2017-07-16T03:50:17.139Z,10
2017-07-16T03:51:17.135Z,10
2017-07-16T03:52:17.402Z,15
2017-07-16T03:53:17.635Z,15
2017-07-16T03:54:17.626Z,15
2017-07-16T03:55:17.349Z,15
2017-07-16T03:56:17.326Z,15
2017-07-16T03:57:17.316Z,15
2017-07-16T03:58:16.969Z,15
2017-07-16T03:59:17.262Z,15
2017-07-16T04:00:17.231Z,15
2017-07-16T04:01:16.916Z,15
2017-07-16T04:02:16.906Z,15
2017-07-16T04:03:17.185Z,20
2017-07-16T04:04:17.156Z,20
2017-07-16T04:05:17.155Z,20
2017-07-16T04:06:16.813Z,20
2017-07-16T04:07:17.104Z,20
2017-07-16T04:08:16.773Z,20
2017-07-16T04:09:17.059Z,25
2017-07-16T04:10:16.735Z,25
2017-07-16T04:11:16.774Z,25
2017-07-16T04:12:17.022Z,25
2017-07-16T04:13:17.239Z,25
2017-07-16T04:14:16.962Z,25
2017-07-16T04:15:16.978Z,25
2017-07-16T04:16:16.923Z,25
2017-07-16T04:17:16.902Z,30
2017-07-16T04:18:16.874Z,30
2017-07-16T04:19:16.550Z,30
2017-07-16T04:20:16.845Z,30
2017-07-16T04:21:16.825Z,35
2017-07-16T04:22:16.489Z,35
2017-07-16T04:23:16.774Z,35
2017-07-16T04:24:16.758Z,35
2017-07-16T04:25:16.431Z,35
2017-07-16T04:26:16.466Z,35
2017-07-16T04:27:16.706Z,30
2017-07-16T04:28:16.729Z,30
2017-07-16T04:29:16.352Z,30
2017-07-16T04:30:16.639Z,30
2017-07-16T04:31:16.618Z,35
2017-07-16T04:32:16.288Z,35
2017-07-16T04:33:16.267Z,40
2017-07-16T04:34:16.611Z,45
2017-07-16T04:35:16.586Z,45
2017-07-16T04:36:16.210Z,50
2017-07-16T04:37:16.500Z,50
2017-07-16T04:38:16.480Z,55
2017-07-16T04:39:16.458Z,60
2017-07-16T04:40:16.446Z,60
2017-07-16T04:41:16.433Z,65
2017-07-16T04:42:16.412Z,65
2017-07-16T04:43:16.074Z,70
2017-07-16T04:44:16.366Z,70
2017-07-16T04:45:16.452Z,70
2017-07-16T04:46:16.330Z,70
2017-07-16T04:47:16.296Z,70
2017-07-16T04:48:15.987Z,70
2017-07-16T04:49:16.257Z,70
2017-07-16T04:50:16.227Z,70
2017-07-16T04:51:16.223Z,65
2017-07-16T04:52:16.202Z,65
2017-07-16T04:53:16.185Z,65
2017-07-16T04:54:15.859Z,60
2017-07-16T04:55:16.152Z,65
2017-07-16T04:56:16.121Z,65
2017-07-16T04:57:15.800Z,65
2017-07-16T04:58:15.776Z,70
2017-07-16T04:59:16.056Z,70
2017-07-16T05:00:16.043Z,70
2017-07-16T05:01:15.718Z,70
2017-07-16T05:02:16.006Z,70
2017-07-16T05:03:16.047Z,70
2017-07-16T05:04:15.962Z,70
2017-07-16T05:05:15.947Z,75
2017-07-16T05:06:15.924Z,75
2017-07-16T05:07:15.610Z,75
2017-07-16T05:08:15.878Z,80
2017-07-16T05:09:15.559Z,80
2017-07-16T05:10:15.856Z,85
2017-07-16T05:11:15.520Z,85
2017-07-16T05:12:15.808Z,80
2017-07-16T05:13:15.793Z,80
2017-07-16T05:14:15.768Z,80
2017-07-16T05:15:15.434Z,80
2017-07-16T05:16:15.730Z,75
2017-07-16T05:17:15.392Z,75
2017-07-16T05:18:15.737Z,75
2017-07-16T05:19:15.724Z,70
2017-07-16T05:20:15.693Z,70
2017-07-16T05:21:15.312Z,65
2017-07-16T05:22:15.620Z,70
2017-07-16T05:23:15.276Z,70
2017-07-16T05:24:15.561Z,70
2017-07-16T05:25:15.549Z,75
2017-07-16T05:26:15.525Z,75
2017-07-16T05:27:15.520Z,75
2017-07-16T05:28:15.178Z,70
2017-07-16T05:29:15.154Z,70
2017-07-16T05:30:15.147Z,70
2017-07-16T05:31:15.436Z,75
2017-07-16T05:32:15.456Z,75
2017-07-16T05:33:15.388Z,75
2017-07-16T05:34:15.380Z,70
2017-07-16T05:35:15.093Z,65
2017-07-16T05:36:15.028Z,60
2017-07-16T05:37:15.315Z,55
2017-07-16T05:38:15.290Z,55
2017-07-16T05:39:15.274Z,55
2017-07-16T05:40:15.249Z,55
2017-07-16T05:41:14.922Z,60
2017-07-16T05:42:15.213Z,65
2017-07-16T05:43:14.268Z,65
2017-07-16T05:44:15.176Z,75
2017-07-16T05:45:15.163Z,80
2017-07-16T05:46:15.134Z,80
2017-07-16T05:47:15.124Z,85
2017-07-16T05:48:15.096Z,90
2017-07-16T05:49:15.106Z,95
2017-07-16T05:50:14.781Z,100
2017-07-16T05:51:15.030Z,110
2017-07-16T05:52:15.020Z,115
2017-07-16T05:53:15.000Z,125
2017-07-16T05:54:14.976Z,125
2017-07-16T05:55:14.340Z,125
2017-07-16T05:56:14.938Z,125
2017-07-16T05:57:14.924Z,125
2017-07-16T05:58:14.903Z,130
2017-07-16T05:59:14.876Z,125
2017-07-16T06:00:14.854Z,130
2017-07-16T06:01:14.880Z,130
2017-07-16T06:02:14.849Z,130
2017-07-16T06:03:14.796Z,130
2017-07-16T06:04:14.468Z,130
2017-07-16T06:05:14.453Z,135
2017-07-16T06:06:14.743Z,140
2017-07-16T06:07:14.427Z,140
2017-07-16T06:08:14.706Z,140
2017-07-16T06:09:14.376Z,140
2017-07-16T06:10:14.667Z,135
2017-07-16T06:11:14.033Z,125
2017-07-16T06:12:14.305Z,120
2017-07-16T06:13:14.599Z,120
2017-07-16T06:14:14.281Z,125
2017-07-16T06:15:14.564Z,125
2017-07-16T06:16:14.839Z,120
2017-07-16T06:17:14.517Z,120
2017-07-16T06:18:14.498Z,120
2017-07-16T06:19:14.490Z,125
2017-07-16T06:20:14.460Z,125
2017-07-16T06:21:14.448Z,130
2017-07-16T06:22:14.111Z,135
2017-07-16T06:23:14.395Z,140
2017-07-16T06:24:14.367Z,155
2017-07-16T06:25:14.414Z,155
2017-07-16T06:26:14.351Z,160
2017-07-16T06:27:14.340Z,160
2017-07-16T06:28:14.306Z,160
2017-07-16T06:29:14.017Z,155
2017-07-16T06:30:14.325Z,155
2017-07-16T06:31:13.949Z,160
2017-07-16T06:32:14.223Z,165
2017-07-16T06:33:13.954Z,175
2017-07-16T06:34:14.233Z,175
2017-07-16T06:35:14.173Z,180
2017-07-16T06:36:14.151Z,195
2017-07-16T06:37:13.513Z,200
2017-07-16T06:38:13.810Z,205
2017-07-16T06:39:14.087Z,205
2017-07-16T06:40:13.770Z,195
2017-07-16T06:41:14.092Z,185
2017-07-16T06:42:14.082Z,185
2017-07-16T06:43:14.019Z,180
2017-07-16T06:44:13.988Z,175
2017-07-16T06:45:13.975Z,165
2017-07-16T06:46:13.339Z,165
2017-07-16T06:47:13.940Z,170
2017-07-16T06:48:13.938Z,175
2017-07-16T06:49:13.909Z,175
2017-07-16T06:50:13.948Z,190
2017-07-16T06:51:13.858Z,185
2017-07-16T06:52:13.892Z,180
2017-07-16T06:53:13.827Z,175
2017-07-16T06:54:13.797Z,180
2017-07-16T06:55:13.801Z,190
2017-07-16T06:56:13.786Z,195
2017-07-16T06:57:13.780Z,190
2017-07-16T06:58:13.730Z,180
2017-07-16T06:59:13.710Z,175
2017-07-16T07:00:13.688Z,165
2017-07-16T07:01:13.676Z,155
2017-07-16T07:02:13.643Z,150
2017-07-16T07:03:13.628Z,135
2017-07-16T07:04:13.328Z,135
2017-07-16T07:05:13.593Z,145
2017-07-16T07:06:13.566Z,155
2017-07-16T07:07:13.549Z,160
2017-07-16T07:08:13.524Z,170
2017-07-16T07:09:13.503Z,175
2017-07-16T07:10:13.487Z,195
2017-07-16T07:11:13.474Z,230
2017-07-16T07:12:13.451Z,255
2017-07-16T07:13:13.439Z,290
2017-07-16T07:14:13.409Z,305
2017-07-16T07:15:13.406Z,340
2017-07-16T07:16:13.372Z,385
2017-07-16T07:17:13.364Z,435
2017-07-16T07:18:13.335Z,480
2017-07-16T07:19:13.322Z,480
2017-07-16T07:20:13.300Z,415
2017-07-16T07:21:12.962Z,370
2017-07-16T07:22:12.991Z,345
2017-07-16T07:23:13.247Z,305
2017-07-16T07:24:13.216Z,270
2017-07-16T07:25:13.258Z,245
2017-07-16T07:26:13.181Z,230
2017-07-16T07:27:13.172Z,205
2017-07-16T07:28:13.145Z,185
2017-07-16T07:29:13.133Z,170
2017-07-16T07:30:13.111Z,160
2017-07-16T07:31:13.082Z,145
2017-07-16T07:32:13.074Z,150
2017-07-16T07:33:12.743Z,150
2017-07-16T07:34:13.045Z,155
2017-07-16T07:35:13.011Z,160
2017-07-16T07:36:12.991Z,165
2017-07-16T07:37:13.013Z,160
2017-07-16T07:38:13.354Z,165
2017-07-16T07:39:12.938Z,165
2017-07-16T07:40:12.921Z,175
2017-07-16T07:41:12.643Z,190
2017-07-16T07:42:12.884Z,195
2017-07-16T07:43:12.856Z,210
2017-07-16T07:44:12.906Z,225
2017-07-16T07:45:12.827Z,225
2017-07-16T07:46:12.489Z,235
2017-07-16T07:47:12.801Z,250
2017-07-16T07:48:12.759Z,255
2017-07-16T07:49:12.761Z,280
2017-07-16T07:50:12.764Z,305
2017-07-16T07:51:12.717Z,260
2017-07-16T07:52:12.691Z,245
2017-07-16T07:53:12.682Z,245
2017-07-16T07:54:12.697Z,255
2017-07-16T07:55:12.623Z,255
2017-07-16T07:56:12.306Z,230
2017-07-16T07:57:12.585Z,220
2017-07-16T07:58:12.580Z,225
2017-07-16T07:59:12.547Z,250
2017-07-16T08:00:12.529Z,260
2017-07-16T08:01:12.520Z,260
2017-07-16T08:02:12.496Z,255
2017-07-16T08:03:12.462Z,290
2017-07-16T08:04:12.511Z,285
2017-07-16T08:05:12.485Z,290
2017-07-16T08:06:12.420Z,295
2017-07-16T08:07:12.399Z,290
2017-07-16T08:08:12.381Z,270
2017-07-16T08:09:12.374Z,280
2017-07-16T08:10:12.341Z,290
2017-07-16T08:11:12.324Z,300
2017-07-16T08:12:12.357Z,325
2017-07-16T08:13:12.288Z,315
2017-07-16T08:14:11.972Z,310
2017-07-16T08:15:12.303Z,325
2017-07-16T08:16:11.921Z,310
2017-07-16T08:17:12.217Z,275
2017-07-16T08:18:12.453Z,290
2017-07-16T08:19:12.181Z,305
2017-07-16T08:20:12.205Z,310
2017-07-16T08:21:12.190Z,325
2017-07-16T08:22:12.124Z,340
2017-07-16T08:23:11.782Z,335
2017-07-16T08:24:12.071Z,345
2017-07-16T08:25:11.749Z,350
2017-07-16T08:26:12.035Z,380
2017-07-16T08:27:12.034Z,380
2017-07-16T08:28:12.001Z,415
2017-07-16T08:29:11.711Z,385
2017-07-16T08:30:11.659Z,375
2017-07-16T08:31:11.959Z,395
2017-07-16T08:32:11.932Z,405
2017-07-16T08:33:11.957Z,400
2017-07-16T08:34:11.273Z,400
2017-07-16T08:35:11.875Z,440
2017-07-16T08:36:11.546Z,460
2017-07-16T08:37:11.830Z,445
2017-07-16T08:38:11.199Z,440
2017-07-16T08:39:11.846Z,455
2017-07-16T08:40:11.790Z,430
2017-07-16T08:41:11.772Z,405
2017-07-16T08:42:11.435Z,390
2017-07-16T08:43:11.710Z,345
2017-07-16T08:44:11.700Z,315
2017-07-16T08:45:11.689Z,300
2017-07-16T08:46:11.674Z,280
2017-07-16T08:47:11.645Z,280
2017-07-16T08:48:11.319Z,270
2017-07-16T08:49:11.000Z,250
2017-07-16T08:50:11.619Z,245
2017-07-16T08:51:11.631Z,235
2017-07-16T08:52:11.252Z,250
2017-07-16T08:53:11.243Z,285
2017-07-16T08:54:11.525Z,270
2017-07-16T08:55:11.510Z,270
2017-07-16T08:56:11.488Z,265
2017-07-16T08:57:11.465Z,260
2017-07-16T08:58:11.137Z,275
2017-07-16T08:59:11.137Z,305
2017-07-16T09:00:11.423Z,340
2017-07-16T09:01:11.393Z,345
2017-07-16T09:02:11.401Z,355
2017-07-16T09:03:11.355Z,370
2017-07-16T09:04:10.728Z,355
2017-07-16T09:05:11.331Z,340
2017-07-16T09:06:11.309Z,335
2017-07-16T09:07:11.288Z,325
2017-07-16T09:08:11.266Z,305
2017-07-16T09:09:10.937Z,280
2017-07-16T09:10:10.930Z,260
2017-07-16T09:11:11.217Z,245
2017-07-16T09:12:11.189Z,235
2017-07-16T09:13:11.188Z,240
2017-07-16T09:14:11.155Z,255
2017-07-16T09:15:11.157Z,275
2017-07-16T09:16:11.124Z,280
2017-07-16T09:17:11.103Z,270
2017-07-16T09:18:11.094Z,270
2017-07-16T09:19:11.062Z,265
2017-07-16T09:20:11.102Z,255
2017-07-16T09:21:11.035Z,245
2017-07-16T09:22:11.012Z,260
2017-07-16T09:23:10.992Z,255
2017-07-16T09:24:10.972Z,260
2017-07-16T09:25:10.654Z,275
2017-07-16T09:26:10.634Z,270
2017-07-16T09:27:10.931Z,265
2017-07-16T09:28:10.915Z,265
2017-07-16T09:29:10.881Z,255
2017-07-16T09:30:10.551Z,275
2017-07-16T09:31:10.226Z,280
2017-07-16T09:32:10.835Z,290
2017-07-16T09:33:10.810Z,315
2017-07-16T09:34:10.475Z,305
2017-07-16T09:35:10.780Z,300
2017-07-16T09:36:10.134Z,320
2017-07-16T09:37:10.782Z,320
2017-07-16T09:38:10.767Z,375
2017-07-16T09:39:10.693Z,405
2017-07-16T09:40:10.382Z,425
2017-07-16T09:41:10.351Z,440
2017-07-16T09:42:10.648Z,445
2017-07-16T09:43:10.320Z,470
2017-07-16T09:44:10.649Z,450
2017-07-16T09:45:10.587Z,445
2017-07-16T09:46:09.952Z,435
2017-07-16T09:47:10.232Z,470
2017-07-16T09:48:10.549Z,470
2017-07-16T09:49:10.507Z,495
2017-07-16T09:50:10.494Z,540
2017-07-16T09:51:10.483Z,555
2017-07-16T09:52:10.155Z,565
2017-07-16T09:53:10.448Z,560
2017-07-16T09:54:10.421Z,545
2017-07-16T09:55:10.428Z,490
2017-07-16T09:56:10.097Z,465
2017-07-16T09:57:10.076Z,480
2017-07-16T09:58:10.353Z,515
2017-07-16T09:59:10.028Z,535
2017-07-16T10:00:10.319Z,560
2017-07-16T10:01:09.998Z,585
2017-07-16T10:02:10.284Z,630
2017-07-16T10:03:10.257Z,695
2017-07-16T10:04:10.260Z,750
2017-07-16T10:05:10.238Z,790
2017-07-16T10:06:10.225Z,870
2017-07-16T10:07:09.882Z,920
2017-07-16T10:08:09.896Z,910
2017-07-16T10:09:10.176Z,915
2017-07-16T10:10:09.546Z,815
2017-07-16T10:11:09.861Z,805
2017-07-16T10:12:10.123Z,795
2017-07-16T10:13:10.100Z,815
2017-07-16T10:14:09.522Z,800
2017-07-16T10:15:09.136Z,860
2017-07-16T10:16:09.740Z,955
2017-07-16T10:17:10.038Z,925
2017-07-16T10:18:10.235Z,905
2017-07-16T10:19:10.012Z,830
2017-07-16T10:20:10.008Z,765
2017-07-16T10:21:09.976Z,790
2017-07-16T10:22:09.955Z,805
2017-07-16T10:23:09.944Z,835
2017-07-16T10:24:09.641Z,820
2017-07-16T10:25:09.901Z,780
2017-07-16T10:26:09.896Z,785
2017-07-16T10:27:09.886Z,820
2017-07-16T10:28:09.916Z,845
2017-07-16T10:29:09.599Z,870
2017-07-16T10:30:09.224Z,815
2017-07-16T10:31:09.817Z,680
2017-07-16T10:32:09.807Z,765
2017-07-16T10:33:09.487Z,725
2017-07-16T10:34:09.773Z,780
2017-07-16T10:35:09.755Z,825
2017-07-16T10:36:09.789Z,800
2017-07-16T10:37:09.717Z,745
2017-07-16T10:38:09.107Z,695
2017-07-16T10:39:09.796Z,645
2017-07-16T10:40:09.370Z,670
2017-07-16T10:41:09.404Z,795
2017-07-16T10:42:09.040Z,805
2017-07-16T10:43:08.731Z,870
2017-07-16T10:44:09.629Z,845
2017-07-16T10:45:09.330Z,920
2017-07-16T10:46:09.611Z,890
2017-07-16T10:47:09.594Z,795
2017-07-16T10:48:09.575Z,750
2017-07-16T10:49:08.993Z,715
2017-07-16T10:50:09.537Z,705
2017-07-16T10:51:09.208Z,680
2017-07-16T10:52:09.202Z,620
2017-07-16T10:53:09.493Z,550
2017-07-16T10:54:09.462Z,490
2017-07-16T10:55:09.468Z,535
2017-07-16T10:56:09.440Z,700
2017-07-16T10:57:09.440Z,700
2017-07-16T10:58:09.407Z,720
2017-07-16T10:59:09.452Z,605
2017-07-16T11:00:09.385Z,540
2017-07-16T11:01:09.384Z,500
2017-07-16T11:02:08.770Z,430
2017-07-16T11:03:09.382Z,405
2017-07-16T11:04:09.012Z,375
2017-07-16T11:05:09.363Z,335
2017-07-16T11:06:09.283Z,280
2017-07-16T11:07:09.270Z,280
2017-07-16T11:08:09.335Z,210
2017-07-16T11:09:09.244Z,250
2017-07-16T11:10:09.232Z,265
2017-07-16T11:11:09.216Z,315
2017-07-16T11:12:09.195Z,325
2017-07-16T11:13:08.862Z,370
2017-07-16T11:14:09.159Z,445
2017-07-16T11:15:09.162Z,480
2017-07-16T11:16:09.141Z,535
2017-07-16T11:17:09.111Z,600
2017-07-16T11:18:09.084Z,625
2017-07-16T11:19:08.783Z,735
2017-07-16T11:20:09.126Z,665
2017-07-16T11:21:08.543Z,570
2017-07-16T11:22:09.039Z,490
2017-07-16T11:23:09.011Z,445
2017-07-16T11:24:09.009Z,420
2017-07-16T11:25:08.744Z,420
2017-07-16T11:26:08.661Z,440
2017-07-16T11:27:09.019Z,465
2017-07-16T11:28:08.937Z,430
2017-07-16T11:29:08.927Z,430
2017-07-16T11:30:08.612Z,415
2017-07-16T11:31:08.890Z,445
2017-07-16T11:32:08.589Z,395
2017-07-16T11:33:08.869Z,380
2017-07-16T11:34:08.894Z,405
2017-07-16T11:35:08.925Z,415
2017-07-16T11:36:08.828Z,415
2017-07-16T11:37:08.792Z,405
2017-07-16T11:38:08.806Z,425
2017-07-16T11:39:08.498Z,435
2017-07-16T11:40:08.751Z,480
2017-07-16T11:41:08.675Z,545
2017-07-16T11:42:08.397Z,555
2017-07-16T11:43:08.385Z,545
2017-07-16T11:44:08.382Z,555
2017-07-16T11:45:08.415Z,565
2017-07-16T11:46:08.653Z,645
2017-07-16T11:47:08.350Z,645
2017-07-16T11:48:08.618Z,610
2017-07-16T11:49:08.021Z,520
2017-07-16T11:50:08.633Z,580
2017-07-16T11:51:08.629Z,685
2017-07-16T11:52:08.298Z,705
2017-07-16T11:53:07.932Z,710
2017-07-16T11:54:08.524Z,800
2017-07-16T11:55:08.498Z,780
2017-07-16T11:56:08.714Z,810
2017-07-16T11:57:08.465Z,825
2017-07-16T11:58:08.149Z,690
2017-07-16T11:59:08.465Z,675
2017-07-16T12:00:08.419Z,685
2017-07-16T12:01:08.109Z,700
2017-07-16T12:02:08.390Z,675
2017-07-16T12:03:08.122Z,645
2017-07-16T12:04:08.405Z,605
2017-07-16T12:05:08.345Z,530
2017-07-16T12:06:08.329Z,470
2017-07-16T12:07:08.314Z,470
2017-07-16T12:08:08.316Z,450
2017-07-16T12:09:08.273Z,425
2017-07-16T12:10:08.275Z,585
2017-07-16T12:11:08.260Z,665
2017-07-16T12:12:08.238Z,715
2017-07-16T12:13:08.215Z,830
2017-07-16T12:14:08.207Z,870
2017-07-16T12:15:08.234Z,805
2017-07-16T12:16:07.874Z,785
2017-07-16T12:17:07.845Z,755
2017-07-16T12:18:07.843Z,750
2017-07-16T12:19:07.207Z,795
2017-07-16T12:20:07.802Z,815
2017-07-16T12:21:07.499Z,780
2017-07-16T12:22:08.157Z,740
2017-07-16T12:23:08.084Z,725
2017-07-16T12:24:08.045Z,730
2017-07-16T12:25:08.044Z,725
2017-07-16T12:26:07.733Z,755
2017-07-16T12:27:08.011Z,785
2017-07-16T12:28:07.765Z,755
2017-07-16T12:29:08.037Z,785
2017-07-16T12:30:07.961Z,730
2017-07-16T12:31:07.957Z,620
2017-07-16T12:32:07.632Z,670
2017-07-16T12:33:07.928Z,790
2017-07-16T12:34:07.921Z,710
2017-07-16T12:35:07.625Z,685
2017-07-16T12:36:07.270Z,615
2017-07-16T12:37:07.880Z,575
2017-07-16T12:38:07.595Z,645
2017-07-16T12:39:07.837Z,565
2017-07-16T12:40:07.816Z,500
2017-07-16T12:41:07.486Z,465
2017-07-16T12:42:07.797Z,430
2017-07-16T12:43:07.771Z,485
2017-07-16T12:44:07.773Z,530
2017-07-16T12:45:07.755Z,605
2017-07-16T12:46:07.430Z,595
2017-07-16T12:47:07.727Z,510
2017-07-16T12:48:07.413Z,495
2017-07-16T12:49:07.672Z,500
2017-07-16T12:50:07.348Z,460
2017-07-16T12:51:07.651Z,470
2017-07-16T12:52:06.720Z,455
2017-07-16T12:53:07.701Z,400
2017-07-16T12:54:07.605Z,345
2017-07-16T12:55:07.637Z,305
2017-07-16T12:56:07.272Z,275
2017-07-16T12:57:07.270Z,270
2017-07-16T12:58:07.536Z,280
2017-07-16T12:59:07.237Z,260
2017-07-16T13:00:07.525Z,265
2017-07-16T13:01:06.886Z,270
2017-07-16T13:02:07.487Z,250
2017-07-16T13:03:07.469Z,235
2017-07-16T13:04:06.842Z,225
2017-07-16T13:05:07.433Z,240
2017-07-16T13:06:06.814Z,245
2017-07-16T13:07:06.789Z,245
2017-07-16T13:08:07.099Z,260
2017-07-16T13:09:07.094Z,310
2017-07-16T13:10:07.069Z,285
2017-07-16T13:11:07.350Z,235
2017-07-16T13:12:07.312Z,275
2017-07-16T13:13:06.986Z,265
2017-07-16T13:14:07.578Z,255
2017-07-16T13:15:07.288Z,320
2017-07-16T13:16:07.261Z,345
2017-07-16T13:17:07.226Z,380
2017-07-16T13:18:07.231Z,360
2017-07-16T13:19:07.214Z,355
2017-07-16T13:20:07.235Z,330
2017-07-16T13:21:07.227Z,325
2017-07-16T13:22:06.623Z,360
2017-07-16T13:23:07.137Z,310
2017-07-16T13:24:07.101Z,275
2017-07-16T13:25:07.121Z,265
2017-07-16T13:26:06.769Z,255
2017-07-16T13:27:07.105Z,275
2017-07-16T13:28:07.107Z,285
2017-07-16T13:29:07.052Z,295
2017-07-16T13:30:07.015Z,305
2017-07-16T13:31:07.011Z,265
2017-07-16T13:32:06.977Z,250
2017-07-16T13:33:06.973Z,270
2017-07-16T13:34:06.958Z,280
2017-07-16T13:35:06.938Z,230
2017-07-16T13:36:06.902Z,215
2017-07-16T13:37:06.895Z,200
2017-07-16T13:38:06.881Z,210
2017-07-16T13:39:06.874Z,225
2017-07-16T13:40:06.838Z,230
2017-07-16T13:41:06.825Z,215
2017-07-16T13:42:06.804Z,245
2017-07-16T13:43:07.064Z,250
2017-07-16T13:44:06.834Z,240
2017-07-16T13:45:06.752Z,260
2017-07-16T13:46:06.763Z,325
2017-07-16T13:47:06.727Z,405
2017-07-16T13:48:06.752Z,310
2017-07-16T13:49:06.740Z,250
2017-07-16T13:50:06.686Z,250
2017-07-16T13:51:06.340Z,260
2017-07-16T13:52:06.641Z,295
2017-07-16T13:53:06.620Z,325
2017-07-16T13:54:06.651Z,370
2017-07-16T13:55:06.582Z,375
2017-07-16T13:56:06.254Z,330
2017-07-16T13:57:06.546Z,295
2017-07-16T13:58:05.911Z,270
2017-07-16T13:59:06.506Z,335
2017-07-16T14:00:05.874Z,340
2017-07-16T14:01:06.528Z,295
2017-07-16T14:02:05.844Z,330
2017-07-16T14:03:06.138Z,325
2017-07-16T14:04:06.433Z,335
2017-07-16T14:05:06.414Z,305